Time;durP1;ratioP1;P1;durP2;ratioP2;P2;SDS_P1;SDS_P2;PMS_P1;PMS_P2;Temp;Humidity;BMP_temperature;BMP_pressure;BME280_temperature;BME280_humidity;BME280_pressure;Samples;Min_cycle;Max_cycle;Signal;HPM_P1;HPM_P2
2021/12/30 00:00:51;;;;;;;42.60;17.65;;;;;;;9.81;97.75;101077.25;5022327;28;20073;-64
2021/12/30 00:03:17;;;;;;;47.28;18.98;;;;;;;9.85;97.21;101068.31;5014529;28;20041;-65
2021/12/30 00:05:43;;;;;;;43.85;18.08;;;;;;;9.79;97.49;101064.41;5018317;28;20029;-65
2021/12/30 00:08:09;;;;;;;45.70;18.77;;;;;;;9.82;97.61;101074.56;5014890;28;20036;-66
2021/12/30 00:10:35;;;;;;;39.75;18.98;;;;;;;9.81;97.15;101080.69;5024698;28;20030;-65
2021/12/30 00:13:00;;;;;;;37.50;18.73;;;;;;;9.82;97.44;101084.09;5010960;28;20081;-64
2021/12/30 00:15:26;;;;;;;42.78;19.33;;;;;;;9.80;97.31;101086.78;5013468;28;20462;-65
2021/12/30 00:17:51;;;;;;;43.95;18.55;;;;;;;9.79;97.71;101089.47;5007866;28;20497;-64
2021/12/30 00:20:17;;;;;;;42.47;18.10;;;;;;;9.80;97.46;101085.94;5005690;28;20507;-65
2021/12/30 00:22:43;;;;;;;41.60;16.73;;;;;;;9.78;98.06;101083.47;5008313;28;20520;-65
2021/12/30 00:25:10;;;;;;;40.92;16.27;;;;;;;9.80;98.06;101091.13;5015385;28;20037;-64
2021/12/30 00:27:35;;;;;;;45.53;16.52;;;;;;;9.80;97.52;101091.13;4988309;28;20026;-65
2021/12/30 00:30:00;;;;;;;36.63;15.20;;;;;;;9.82;98.28;101094.44;5016226;28;20084;-65
2021/12/30 00:32:26;;;;;;;41.75;14.90;;;;;;;9.80;97.80;101098.91;5025252;28;20030;-65
2021/12/30 00:34:51;;;;;;;39.67;14.95;;;;;;;9.84;97.98;101097.75;5011798;28;20049;-64
2021/12/30 00:37:16;;;;;;;37.88;15.30;;;;;;;9.85;97.54;101089.03;5022384;28;20105;-66
2021/12/30 00:39:42;;;;;;;43.38;15.45;;;;;;;9.85;97.89;101104.56;5003354;28;20038;-65
2021/12/30 00:42:08;;;;;;;42.60;15.18;;;;;;;9.87;98.04;101102.72;5016416;28;20488;-64
2021/12/30 00:44:33;;;;;;;39.55;15.38;;;;;;;9.89;98.04;101100.81;5025219;28;20388;-64
2021/12/30 00:46:59;;;;;;;37.20;14.55;;;;;;;9.89;97.79;101113.78;5005268;28;20037;-64
2021/12/30 00:49:26;;;;;;;38.22;14.50;;;;;;;9.89;97.93;101108.59;5010013;28;20038;-64
2021/12/30 00:51:52;;;;;;;38.42;14.48;;;;;;;9.89;98.01;101111.19;5012377;28;20112;-64
2021/12/30 00:54:17;;;;;;;38.88;14.65;;;;;;;9.90;97.99;101105.06;5010299;28;20037;-65
2021/12/30 00:56:43;;;;;;;41.20;15.07;;;;;;;9.91;98.38;101109.28;5027858;28;20033;-64
2021/12/30 00:59:08;;;;;;;37.63;14.38;;;;;;;9.93;98.56;101112.63;5023122;28;20022;-64
2021/12/30 01:01:33;;;;;;;39.40;14.70;;;;;;;9.94;98.11;101098.72;5018368;28;20438;-64
2021/12/30 01:03:59;;;;;;;43.70;14.77;;;;;;;9.94;98.04;101109.09;5010973;28;20594;-64
2021/12/30 01:06:24;;;;;;;39.25;14.02;;;;;;;9.96;98.66;101112.38;5030249;28;20116;-65
2021/12/30 01:08:50;;;;;;;38.95;14.88;;;;;;;9.98;97.94;101107.09;5018476;28;20481;-65
2021/12/30 01:11:16;;;;;;;37.10;14.95;;;;;;;9.98;98.56;101105.34;5024395;28;20063;-64
2021/12/30 01:13:45;;;;;;;40.53;14.27;;;;;;;10.01;98.93;101106.84;5011964;28;20462;-64
2021/12/30 01:16:17;;;;;;;37.08;14.35;;;;;;;10.02;98.18;101111.91;5016112;28;20080;-64
2021/12/30 01:19:00;;;;;;;40.47;14.52;;;;;;;10.04;99.02;101110.06;5005543;28;20050;-65
2021/12/30 01:21:28;;;;;;;35.55;13.82;;;;;;;10.02;98.35;101121.47;5009422;28;20061;-64
2021/12/30 01:23:54;;;;;;;40.47;14.13;;;;;;;9.99;98.33;101112.16;5023119;28;20036;-65
2021/12/30 01:26:19;;;;;;;35.90;13.93;;;;;;;10.03;98.67;101110.97;5033525;28;20038;-65
2021/12/30 01:28:45;;;;;;;37.78;14.35;;;;;;;10.06;98.92;101120.31;5029694;28;20025;-64
2021/12/30 01:31:11;;;;;;;35.85;13.63;;;;;;;10.07;98.33;101130.53;5022570;28;20477;-65
2021/12/30 01:33:39;;;;;;;38.70;14.23;;;;;;;10.10;98.66;101117.38;5025479;28;20091;-65
2021/12/30 01:36:05;;;;;;;40.72;13.88;;;;;;;10.13;98.72;101120.66;5013344;28;20049;-65
2021/12/30 01:38:30;;;;;;;39.15;14.02;;;;;;;10.11;98.75;101120.78;4996016;28;20026;-65
2021/12/30 01:41:00;;;;;;;38.40;13.55;;;;;;;10.16;99.40;101123.03;5020035;28;20092;-65
2021/12/30 01:43:26;;;;;;;42.90;13.77;;;;;;;10.23;99.27;101121.63;5014458;28;20117;-64
2021/12/30 01:45:52;;;;;;;37.03;13.40;;;;;;;10.21;99.29;101105.38;5003559;28;20049;-65
2021/12/30 01:48:17;;;;;;;34.67;13.07;;;;;;;10.22;99.14;101112.22;5013155;28;20350;-65
2021/12/30 01:50:43;;;;;;;35.72;13.68;;;;;;;10.26;99.37;101109.28;5016105;28;20033;-65
2021/12/30 01:53:09;;;;;;;42.25;14.55;;;;;;;10.25;99.20;101101.63;4996170;28;20549;-64
2021/12/30 01:55:36;;;;;;;37.45;14.10;;;;;;;10.31;99.61;101111.53;5025076;28;20075;-66
2021/12/30 01:58:03;;;;;;;39.20;14.48;;;;;;;10.34;99.24;101112.13;5027693;28;20072;-64
2021/12/30 02:00:30;;;;;;;42.17;16.33;;;;;;;10.39;100.00;101101.41;5015930;28;20380;-64
2021/12/30 02:02:55;;;;;;;37.25;15.10;;;;;;;10.40;99.47;101090.09;4995321;28;20068;-65
2021/12/30 02:05:21;;;;;;;43.03;16.63;;;;;;;10.45;99.29;101097.53;5026832;28;20026;-66
2021/12/30 02:07:46;;;;;;;41.38;16.20;;;;;;;10.49;100.00;101099.75;5015004;28;20041;-65
2021/12/30 02:10:13;;;;;;;39.65;16.60;;;;;;;10.48;100.00;101098.09;4995702;28;20030;-65
2021/12/30 02:12:39;;;;;;;37.25;16.88;;;;;;;10.53;100.00;101114.13;5015643;28;20076;-65
2021/12/30 02:15:07;;;;;;;33.47;17.05;;;;;;;10.55;99.84;101119.19;5008450;28;20030;-65
2021/12/30 02:17:33;;;;;;;39.95;17.63;;;;;;;10.56;99.84;101121.69;5009695;28;20034;-66
2021/12/30 02:20:01;;;;;;;41.53;17.10;;;;;;;10.59;100.00;101131.81;5029692;28;20033;-65
2021/12/30 02:22:27;;;;;;;;;;;;;;;10.64;100.00;101134.88;5027635;28;20040;-65
2021/12/30 02:24:52;;;;;;;42.03;18.33;;;;;;;10.61;99.81;101129.94;5021144;28;19917;-66
2021/12/30 02:27:19;;;;;;;40.80;18.48;;;;;;;10.62;100.00;101123.00;5018959;28;20042;-65
2021/12/30 02:29:44;;;;;;;36.55;18.15;;;;;;;10.66;100.00;101133.94;5031937;28;20460;-65
2021/12/30 02:32:10;;;;;;;40.13;19.42;;;;;;;10.67;99.65;101127.81;5000944;28;20022;-71
2021/12/30 02:34:39;;;;;;;39.95;18.42;;;;;;;10.71;100.00;101124.03;5019663;28;20381;-73
2021/12/30 02:37:06;;;;;;;38.20;19.05;;;;;;;10.69;99.71;101131.13;5008204;28;20032;-65
2021/12/30 02:39:32;;;;;;;40.03;19.63;;;;;;;10.73;100.00;101122.16;5019644;28;20525;-65
2021/12/30 02:41:57;;;;;;;41.97;19.70;;;;;;;10.73;100.00;101123.00;5014614;28;20144;-65
2021/12/30 02:44:23;;;;;;;37.70;19.33;;;;;;;10.73;100.00;101124.75;5014728;28;20036;-66
2021/12/30 02:46:54;;;;;;;37.47;18.48;;;;;;;10.75;100.00;101130.66;5024202;28;20043;-66
2021/12/30 02:49:20;;;;;;;39.47;18.63;;;;;;;10.76;100.00;101122.75;5021840;28;20120;-65
2021/12/30 02:51:45;;;;;;;36.85;18.25;;;;;;;10.76;100.00;101132.28;5000595;28;20131;-65
2021/12/30 02:54:11;;;;;;;38.22;18.48;;;;;;;10.80;100.00;101128.53;5023498;28;20581;-65
2021/12/30 02:56:36;;;;;;;39.70;19.92;;;;;;;10.82;100.00;101126.63;5020103;28;20037;-67
2021/12/30 02:59:03;;;;;;;35.75;17.77;;;;;;;10.82;100.00;101137.81;5031721;28;20025;-65
2021/12/30 03:01:31;;;;;;;37.95;18.58;;;;;;;10.81;100.00;101137.94;5023825;28;20030;-66
2021/12/30 03:04:00;;;;;;;39.53;18.58;;;;;;;10.84;100.00;101138.56;5026940;28;20136;-65
2021/12/30 03:06:27;;;;;;;36.05;18.85;;;;;;;10.85;100.00;101129.00;5026328;28;20033;-66
2021/12/30 03:08:53;;;;;;;39.40;18.70;;;;;;;10.86;100.00;101143.63;5028722;28;20029;-66
2021/12/30 03:11:21;;;;;;;38.13;19.20;;;;;;;10.89;100.00;101143.34;5017987;28;20070;-65
2021/12/30 03:13:47;;;;;;;36.67;18.67;;;;;;;10.87;100.00;101142.66;5017531;28;20355;-65
2021/12/30 03:16:29;;;;;;;34.90;17.42;;;;;;;10.90;100.00;101145.03;5013051;28;20053;-65
2021/12/30 03:18:55;;;;;;;29.17;16.52;;;;;;;10.91;100.00;101146.69;5024449;28;20468;-64
2021/12/30 03:21:22;;;;;;;29.75;16.98;;;;;;;10.89;100.00;101149.38;5017882;28;20033;-64
2021/12/30 03:23:49;;;;;;;29.17;16.20;;;;;;;10.90;100.00;101143.25;5017729;28;20034;-65
2021/12/30 03:26:15;;;;;;;27.75;15.65;;;;;;;10.90;100.00;101145.84;5009293;28;20132;-65
2021/12/30 03:28:43;;;;;;;27.52;14.93;;;;;;;10.91;100.00;101141.50;5015886;28;20072;-64
2021/12/30 03:31:10;;;;;;;23.98;14.48;;;;;;;10.91;100.00;101146.69;5011432;28;20127;-64
2021/12/30 03:33:36;;;;;;;23.05;15.40;;;;;;;10.92;100.00;101145.72;5004923;28;20040;-64
2021/12/30 03:36:03;;;;;;;22.92;15.05;;;;;;;10.94;100.00;101141.22;5010786;28;20025;-64
2021/12/30 03:38:31;;;;;;;22.60;15.77;;;;;;;10.95;100.00;101148.06;5025131;28;20029;-64
2021/12/30 03:40:58;;;;;;;24.35;17.25;;;;;;;10.99;100.00;101148.66;5026861;28;20042;-64
2021/12/30 03:43:23;;;;;;;26.17;16.30;;;;;;;10.97;100.00;101146.19;5013622;28;20462;-64
2021/12/30 03:45:48;;;;;;;22.50;16.90;;;;;;;10.99;100.00;101152.09;5016351;28;20043;-64
2021/12/30 03:48:14;;;;;;;23.20;17.48;;;;;;;10.99;100.00;101133.91;5025233;28;20120;-64
2021/12/30 03:50:43;;;;;;;23.83;17.10;;;;;;;10.99;100.00;101133.91;5029600;28;20021;-64
2021/12/30 03:53:14;;;;;;;21.92;16.38;;;;;;;10.99;100.00;101133.91;5025129;28;20029;-64
2021/12/30 03:55:39;;;;;;;19.42;15.23;;;;;;;10.99;100.00;101128.72;5029757;28;20509;-65
2021/12/30 03:58:05;;;;;;;20.25;15.20;;;;;;;11.01;100.00;101132.06;5000557;28;20053;-64
2021/12/30 04:00:32;;;;;;;18.33;13.98;;;;;;;11.02;100.00;101127.69;5030641;28;20416;-63
2021/12/30 04:02:57;;;;;;;16.73;14.15;;;;;;;11.03;100.00;101137.94;5027364;28;20080;-64
2021/12/30 04:05:24;;;;;;;16.73;13.82;;;;;;;11.06;100.00;101134.25;5030368;28;20029;-64
2021/12/30 04:07:49;;;;;;;16.50;13.52;;;;;;;11.09;100.00;101134.84;5027190;28;20026;-64
2021/12/30 04:10:17;;;;;;;16.55;13.55;;;;;;;11.11;100.00;101138.13;5021749;28;20030;-64
2021/12/30 04:12:44;;;;;;;18.98;14.95;;;;;;;11.14;100.00;101148.31;5023265;28;20022;-64
2021/12/30 04:15:10;;;;;;;18.38;16.30;;;;;;;11.14;100.00;101148.31;5025933;28;20025;-64
2021/12/30 04:17:36;;;;;;;18.77;15.75;;;;;;;11.17;100.00;101150.63;5016284;28;20033;-64
2021/12/30 04:20:08;;;;;;;19.60;17.58;;;;;;;11.21;100.00;101158.19;5021662;28;20385;-65
2021/12/30 04:22:34;;;;;;;21.23;18.95;;;;;;;11.24;100.00;101163.13;5013723;28;20045;-64
2021/12/30 04:24:59;;;;;;;20.63;18.42;;;;;;;11.23;100.00;101161.50;5018243;28;20069;-64
2021/12/30 04:27:25;;;;;;;24.60;21.48;;;;;;;11.25;100.00;101164.81;5014814;28;20482;-64
2021/12/30 04:29:50;;;;;;;27.05;24.15;;;;;;;11.27;100.00;101162.91;5000421;28;20173;-65
2021/12/30 04:32:16;;;;;;;27.67;24.88;;;;;;;11.28;100.00;101165.38;4973360;28;20571;-65
2021/12/30 04:34:41;;;;;;;28.38;25.38;;;;;;;11.32;100.00;101171.16;4990942;28;20038;-65
2021/12/30 04:37:06;;;;;;;30.20;27.10;;;;;;;11.34;100.00;101161.47;4991573;28;20917;-65
2021/12/30 04:39:32;;;;;;;33.70;30.17;;;;;;;11.36;100.00;101159.59;4995006;28;20026;-66
2021/12/30 04:41:58;;;;;;;30.02;26.92;;;;;;;11.39;100.00;101161.94;4994415;28;20556;-65
2021/12/30 04:44:24;;;;;;;27.67;24.77;;;;;;;11.39;100.00;101169.72;4994870;28;20091;-65
2021/12/30 04:46:50;;;;;;;27.98;25.02;;;;;;;11.39;100.00;101156.72;4994434;28;20030;-64
2021/12/30 04:49:15;;;;;;;26.67;23.98;;;;;;;11.43;100.00;101174.56;4994663;28;20382;-65
2021/12/30 04:51:40;;;;;;;27.40;24.60;;;;;;;11.44;100.00;101165.81;4994273;28;20037;-65
2021/12/30 04:54:06;;;;;;;26.02;23.40;;;;;;;11.50;100.00;101177.47;4994440;28;20459;-65
2021/12/30 04:56:31;;;;;;;24.92;22.42;;;;;;;11.48;100.00;101176.78;4992723;28;20520;-65
2021/12/30 04:58:56;;;;;;;25.70;23.00;;;;;;;11.53;100.00;101169.47;4976970;28;20073;-65
2021/12/30 05:01:22;;;;;;;24.42;21.85;;;;;;;11.55;100.00;101172.75;4993987;28;20038;-65
2021/12/30 05:03:48;;;;;;;23.30;20.80;;;;;;;11.54;100.00;101171.09;4982182;28;20069;-64
2021/12/30 05:06:13;;;;;;;22.85;20.55;;;;;;;11.56;100.00;101179.59;4994095;28;20070;-65
2021/12/30 05:08:38;;;;;;;22.33;20.02;;;;;;;11.60;100.00;101181.00;4994473;28;20034;-65
2021/12/30 05:11:07;;;;;;;20.90;18.70;;;;;;;11.57;100.00;101165.66;4976653;28;20019;-64
2021/12/30 05:13:32;;;;;;;19.88;17.88;;;;;;;11.61;100.00;101177.44;4990873;28;20077;-64
2021/12/30 05:15:58;;;;;;;18.88;16.88;;;;;;;11.63;100.00;101166.94;4993892;28;20466;-65
2021/12/30 05:18:31;;;;;;;16.90;15.13;;;;;;;11.63;100.00;101172.94;4995465;28;20382;-65
2021/12/30 05:21:01;;;;;;;18.23;16.00;;;;;;;11.68;100.00;101183.81;4990896;28;20387;-65
2021/12/30 05:23:28;;;;;;;17.17;15.48;;;;;;;11.69;100.00;101180.25;4996173;28;20038;-65
2021/12/30 05:25:53;;;;;;;16.48;14.85;;;;;;;11.70;100.00;101181.09;4993896;28;20026;-65
2021/12/30 05:28:19;;;;;;;16.10;14.50;;;;;;;11.69;100.00;101190.63;4993637;28;20372;-65
2021/12/30 05:30:44;;;;;;;16.30;14.80;;;;;;;11.75;100.00;101193.69;5010064;28;20049;-65
2021/12/30 05:33:10;;;;;;;15.32;13.82;;;;;;;11.75;100.00;101201.50;5023670;28;20034;-65
2021/12/30 05:35:35;;;;;;;14.38;13.07;;;;;;;11.79;100.00;101211.53;5027756;28;20037;-65
2021/12/30 05:38:02;;;;;;;13.50;12.20;;;;;;;11.81;100.00;101203.59;5025298;28;20029;-65
2021/12/30 05:40:28;;;;;;;12.73;11.50;;;;;;;11.84;100.00;101208.59;4995669;28;20038;-65
2021/12/30 05:42:53;;;;;;;12.65;11.45;;;;;;;11.83;100.00;101217.34;5012878;28;20048;-65
2021/12/30 05:45:20;;;;;;;12.20;11.10;;;;;;;11.84;100.00;101224.19;5012456;28;20022;-65
2021/12/30 05:47:47;;;;;;;11.82;10.65;;;;;;;11.86;100.00;101217.06;5013179;28;20022;-65
2021/12/30 05:50:15;;;;;;;10.43;9.43;;;;;;;11.85;100.00;101220.63;5012921;28;20029;-65
2021/12/30 05:52:41;;;;;;;10.57;9.57;;;;;;;11.92;100.00;101216.56;5012890;28;20018;-65
2021/12/30 05:55:07;;;;;;;10.32;9.27;;;;;;;11.92;100.00;101229.56;5013083;28;20272;-64
2021/12/30 05:57:32;;;;;;;10.63;9.52;;;;;;;11.90;100.00;101223.69;5012836;28;20033;-65
2021/12/30 05:59:58;;;;;;;9.75;8.75;;;;;;;11.97;100.00;101224.84;5016299;28;20041;-65
2021/12/30 06:02:24;;;;;;;8.80;7.90;;;;;;;11.93;100.00;101224.28;5029495;28;20107;-64
2021/12/30 06:04:49;;;;;;;8.75;7.70;;;;;;;11.94;100.00;101225.09;5012461;28;20555;-65
2021/12/30 06:07:14;;;;;;;8.77;7.30;;;;;;;11.95;100.00;101214.56;5015847;28;20474;-65
2021/12/30 06:09:41;;;;;;;8.95;7.40;;;;;;;11.98;100.00;101216.06;5018972;28;20458;-64
2021/12/30 06:12:07;;;;;;;8.13;6.40;;;;;;;11.97;100.00;101222.22;5012757;28;20025;-65
2021/12/30 06:14:33;;;;;;;9.05;6.15;;;;;;;11.95;100.00;101216.34;5025951;28;20041;-65
2021/12/30 06:16:58;;;;;;;8.70;6.40;;;;;;;11.99;100.00;101229.94;5012564;28;20030;-65
2021/12/30 06:19:23;;;;;;;7.80;5.90;;;;;;;11.97;100.00;101224.84;5022682;28;20033;-65
2021/12/30 06:21:49;;;;;;;8.05;5.65;;;;;;;11.95;99.89;101226.75;5022839;28;20018;-68
2021/12/30 06:24:14;;;;;;;8.20;5.90;;;;;;;11.93;100.00;101228.66;4997573;28;20037;-65
2021/12/30 06:26:40;;;;;;;7.68;5.65;;;;;;;11.99;100.00;101222.97;5004718;28;20540;-65
2021/12/30 06:29:05;;;;;;;7.75;5.68;;;;;;;11.98;99.84;101221.28;5014227;28;20045;-65
2021/12/30 06:31:30;;;;;;;7.53;5.50;;;;;;;11.97;100.00;101224.84;5023735;28;20050;-65
2021/12/30 06:33:56;;;;;;;8.05;5.25;;;;;;;12.01;99.96;101231.44;5027191;28;20030;-64
2021/12/30 06:36:21;;;;;;;7.10;5.53;;;;;;;11.98;99.79;101226.47;5014808;28;20024;-66
2021/12/30 06:38:48;;;;;;;7.22;5.25;;;;;;;11.98;99.40;101233.47;5027011;28;20472;-64
2021/12/30 06:41:13;;;;;;;5.88;4.57;;;;;;;11.98;99.67;101231.69;5023131;28;20056;-65
2021/12/30 06:43:39;;;;;;;5.82;5.10;;;;;;;12.00;99.79;101235.00;4999889;28;20021;-65
2021/12/30 06:46:05;;;;;;;7.22;6.18;;;;;;;11.98;99.53;101239.47;5012261;28;20418;-65
2021/12/30 06:48:31;;;;;;;7.15;6.25;;;;;;;11.98;99.64;101236.06;5014014;28;20036;-65
2021/12/30 06:50:58;;;;;;;8.95;7.00;;;;;;;12.03;99.12;101242.53;5025979;28;20025;-65
2021/12/30 06:53:24;;;;;;;8.55;7.47;;;;;;;12.03;99.09;101250.34;5025793;28;20030;-64
2021/12/30 06:55:51;;;;;;;8.07;7.28;;;;;;;12.03;99.67;101245.13;5013751;28;20068;-65
2021/12/30 06:58:18;;;;;;;8.82;7.93;;;;;;;12.03;99.40;101255.53;5022730;28;20037;-66
2021/12/30 07:00:44;;;;;;;8.30;7.50;;;;;;;12.07;99.15;101256.94;4993088;28;20381;-65
2021/12/30 07:03:10;;;;;;;9.27;8.27;;;;;;;12.05;98.83;101264.06;5011884;28;20030;-65
2021/12/30 07:05:35;;;;;;;10.02;9.13;;;;;;;12.06;98.63;101268.31;4994672;28;20542;-65
2021/12/30 07:08:01;;;;;;;10.75;9.57;;;;;;;12.07;99.02;101267.34;5025083;28;20417;-64
2021/12/30 07:10:27;;;;;;;11.82;10.63;;;;;;;12.04;98.88;101277.97;5025031;28;20474;-65
2021/12/30 07:12:53;;;;;;;12.15;11.05;;;;;;;12.07;99.19;101266.53;5019359;28;20104;-65
2021/12/30 07:15:18;;;;;;;12.35;11.25;;;;;;;12.06;99.16;101280.47;5010979;28;20118;-65
2021/12/30 07:17:44;;;;;;;13.15;11.85;;;;;;;12.06;98.42;101286.50;5014924;28;20025;-65
2021/12/30 07:20:10;;;;;;;13.40;12.10;;;;;;;12.07;98.78;101261.31;5011125;28;20184;-65
2021/12/30 07:22:36;;;;;;;13.90;12.52;;;;;;;12.06;98.66;101273.50;5031151;28;20057;-65
2021/12/30 07:25:02;;;;;;;13.20;11.90;;;;;;;12.08;98.93;101292.38;5008560;28;20464;-64
2021/12/30 07:27:28;;;;;;;14.07;12.68;;;;;;;12.10;98.66;101282.72;5029806;28;20124;-65
2021/12/30 07:29:53;;;;;;;14.00;12.55;;;;;;;12.11;98.73;101294.75;5027368;28;20164;-65
2021/12/30 07:32:18;;;;;;;14.93;13.40;;;;;;;12.10;99.00;101303.50;5019932;28;20096;-65
2021/12/30 07:34:44;;;;;;;14.27;12.88;;;;;;;12.11;98.88;101292.16;5002457;28;20409;-65
2021/12/30 07:37:14;;;;;;;13.38;12.07;;;;;;;12.17;98.76;101303.84;5025814;28;20121;-65
2021/12/30 07:39:39;;;;;;;13.00;11.70;;;;;;;12.12;98.75;101304.19;5015289;28;20144;-67
2021/12/30 07:42:05;;;;;;;13.07;11.65;;;;;;;12.11;98.89;101297.34;4997862;28;20030;-66
2021/12/30 07:44:30;;;;;;;12.95;11.70;;;;;;;12.14;98.83;101304.06;5000784;28;20030;-65
2021/12/30 07:46:55;;;;;;;14.60;11.38;;;;;;;12.14;98.68;101310.09;5001663;28;20034;-64
2021/12/30 07:49:21;;;;;;;12.55;11.25;;;;;;;12.13;98.70;101303.25;5010838;28;20033;-66
2021/12/30 07:51:46;;;;;;;12.27;10.80;;;;;;;12.15;98.33;101309.13;5023367;28;20029;-65
2021/12/30 07:54:11;;;;;;;13.52;11.50;;;;;;;12.17;98.93;101298.63;5004814;28;20076;-65
2021/12/30 07:56:37;;;;;;;12.40;11.20;;;;;;;12.18;98.08;101311.50;5023259;28;20408;-65
2021/12/30 07:59:02;;;;;;;13.57;12.18;;;;;;;12.21;97.57;101311.28;5022003;28;20033;-65
2021/12/30 08:01:28;;;;;;;13.65;12.25;;;;;;;12.18;98.01;101311.50;4998249;28;20026;-65
2021/12/30 08:03:53;;;;;;;13.80;12.40;;;;;;;12.19;98.06;101305.34;5026076;28;20033;-65
2021/12/30 08:06:19;;;;;;;16.90;13.48;;;;;;;12.17;97.97;101307.25;5003935;28;20029;-65
2021/12/30 08:08:44;;;;;;;16.83;13.52;;;;;;;12.19;97.79;101305.34;5030210;28;20025;-65
2021/12/30 08:11:10;;;;;;;17.13;15.40;;;;;;;12.18;97.89;101310.69;5007263;28;20466;-67
2021/12/30 08:13:35;;;;;;;15.10;13.60;;;;;;;12.19;97.33;101317.53;5007265;28;20470;-66
2021/12/30 08:16:01;;;;;;;15.32;13.75;;;;;;;12.20;97.36;101335.59;5022398;28;20037;-66
2021/12/30 08:18:26;;;;;;;15.00;13.50;;;;;;;12.20;97.18;101335.59;5022060;28;20080;-65
2021/12/30 08:20:52;;;;;;;16.88;15.25;;;;;;;12.20;97.11;101338.22;5024832;28;20091;-65
2021/12/30 08:23:18;;;;;;;16.67;15.07;;;;;;;12.17;97.43;101341.06;5003423;28;20233;-65
2021/12/30 08:25:49;;;;;;;16.60;14.95;;;;;;;12.19;97.13;101349.56;4999502;28;20542;-65
2021/12/30 08:28:15;;;;;;;16.02;14.52;;;;;;;12.20;96.78;101342.59;5000719;28;20042;-65
2021/12/30 08:30:40;;;;;;;16.08;14.48;;;;;;;12.18;97.10;101337.50;5000777;28;20046;-65
2021/12/30 08:33:06;;;;;;;16.55;14.95;;;;;;;12.19;97.48;101338.34;4999764;28;20056;-65
2021/12/30 08:35:31;;;;;;;16.98;15.27;;;;;;;12.20;97.11;101335.59;5004077;28;20117;-65
2021/12/30 08:37:56;;;;;;;16.48;14.80;;;;;;;12.22;96.90;101346.72;5003365;28;20392;-66
2021/12/30 08:40:22;;;;;;;17.38;15.57;;;;;;;12.20;96.98;101345.19;5003983;28;20443;-65
2021/12/30 08:42:47;;;;;;;16.77;15.07;;;;;;;12.23;96.74;101356.19;4992013;28;20556;-65
2021/12/30 08:45:14;;;;;;;17.98;16.17;;;;;;;12.26;97.25;101359.47;5019215;28;20095;-65
2021/12/30 08:47:40;;;;;;;16.73;15.02;;;;;;;12.27;96.64;101355.91;5023345;28;20037;-66
2021/12/30 08:50:09;;;;;;;16.77;15.07;;;;;;;12.25;96.77;101363.03;5014110;28;20026;-65
2021/12/30 08:52:35;;;;;;;16.95;15.10;;;;;;;12.25;97.25;101368.22;5008372;28;20461;-65
2021/12/30 08:55:04;;;;;;;15.38;13.88;;;;;;;12.26;97.06;101370.69;5013950;28;20073;-65
2021/12/30 08:57:30;;;;;;;16.20;14.50;;;;;;;12.26;96.91;101369.88;5001624;28;20030;-65
2021/12/30 08:59:56;;;;;;;15.88;14.27;;;;;;;12.30;96.61;101381.69;4997847;28;20031;-65
2021/12/30 09:02:21;;;;;;;14.93;13.43;;;;;;;12.31;96.46;101378.97;5000800;28;20034;-65
2021/12/30 09:04:47;;;;;;;14.07;12.65;;;;;;;12.35;96.93;101382.16;4996931;28;20032;-66
2021/12/30 09:07:15;;;;;;;14.75;12.52;;;;;;;12.34;96.59;101373.53;4997690;28;20474;-71
2021/12/30 09:09:41;;;;;;;14.98;13.20;;;;;;;12.38;96.46;101379.28;5007562;28;20026;-73
2021/12/30 09:12:07;;;;;;;13.93;12.43;;;;;;;12.38;96.35;101379.28;5003534;28;20495;-65
2021/12/30 09:14:33;;;;;;;13.63;11.35;;;;;;;12.40;96.26;101398.22;5002474;28;20416;-65
2021/12/30 09:16:59;;;;;;;12.63;11.43;;;;;;;12.41;96.33;101384.25;4997833;28;20072;-65
2021/12/30 09:19:24;;;;;;;14.57;11.18;;;;;;;12.45;95.92;101390.88;5008473;28;20054;-65
2021/12/30 09:21:50;;;;;;;12.70;10.85;;;;;;;12.44;95.77;101390.06;4996809;28;20065;-65
2021/12/30 09:24:15;;;;;;;12.80;11.15;;;;;;;12.46;95.71;101400.34;5006696;28;20280;-65
2021/12/30 09:26:41;;;;;;;11.98;10.27;;;;;;;12.47;95.61;101394.19;5017459;28;20060;-65
2021/12/30 09:29:10;;;;;;;13.05;10.80;;;;;;;12.49;95.42;101392.25;5007819;28;20029;-65
2021/12/30 09:31:40;;;;;;;15.05;11.35;;;;;;;12.48;95.74;101401.84;5006021;28;20046;-65
2021/12/30 09:34:06;;;;;;;14.40;11.32;;;;;;;12.51;95.26;101416.41;5002840;28;20073;-66
2021/12/30 09:36:32;;;;;;;14.43;10.77;;;;;;;12.54;95.30;101410.94;5004596;28;20029;-65
2021/12/30 09:38:57;;;;;;;13.13;10.38;;;;;;;12.54;95.07;101408.34;4996086;28;20030;-65
2021/12/30 09:41:23;;;;;;;14.00;9.90;;;;;;;12.56;94.95;101403.84;5000001;28;20022;-65
2021/12/30 09:43:48;;;;;;;13.48;9.82;;;;;;;12.56;94.60;101414.25;4985995;28;20596;-65
2021/12/30 09:46:14;;;;;;;13.82;9.20;;;;;;;12.56;94.37;101409.06;5014906;28;20466;-66
2021/12/30 09:48:40;;;;;;;12.85;8.45;;;;;;;12.58;94.39;101416.72;4997698;28;20073;-65
2021/12/30 09:51:08;;;;;;;13.55;8.27;;;;;;;12.61;94.16;101427.69;5014902;28;20022;-65
2021/12/30 09:53:33;;;;;;;16.10;8.20;;;;;;;12.62;94.22;101429.38;5000340;28;20101;-64
2021/12/30 09:55:59;;;;;;;12.88;6.78;;;;;;;12.65;93.61;101433.50;4994475;28;20101;-65
2021/12/30 09:58:26;;;;;;;12.60;6.85;;;;;;;12.65;93.35;101417.88;4994197;28;20556;-65
2021/12/30 10:00:52;;;;;;;13.15;6.43;;;;;;;12.67;93.24;101419.44;4994186;28;20355;-65
2021/12/30 10:03:17;;;;;;;12.98;6.53;;;;;;;12.68;93.17;101415.88;4999812;28;20026;-65
2021/12/30 10:05:43;;;;;;;12.73;6.45;;;;;;;12.70;92.91;101410.53;4995808;28;20026;-65
2021/12/30 10:08:10;;;;;;;13.57;6.40;;;;;;;12.72;92.60;101425.06;5005234;28;20034;-65
2021/12/30 10:10:38;;;;;;;12.88;6.47;;;;;;;12.72;92.21;101419.84;5000554;28;20104;-65
2021/12/30 10:13:19;;;;;;;13.15;6.13;;;;;;;12.75;92.60;101419.63;4994774;28;20033;-65
2021/12/30 10:15:47;;;;;;;12.02;5.78;;;;;;;12.75;92.37;101419.63;4982825;28;20033;-66
2021/12/30 10:18:13;;;;;;;13.25;6.78;;;;;;;12.79;92.25;101425.41;5006739;28;21289;-65
2021/12/30 10:20:40;;;;;;;11.77;6.28;;;;;;;12.81;91.77;101430.50;4997630;28;20034;-65
2021/12/30 10:23:18;;;;;;;13.25;6.13;;;;;;;12.82;92.34;101445.16;5005312;28;20041;-65
2021/12/30 10:25:46;;;;;;;15.27;6.13;;;;;;;12.83;91.66;101431.19;4976811;28;20390;-66
2021/12/30 10:28:43;;;;;;;;;;;;;;;12.91;93.17;101449.63;5002671;28;20040;-65
2021/12/30 10:31:11;;;;;;;11.20;6.18;;;;;;;12.84;91.80;101435.44;4984300;28;20381;-65
2021/12/30 10:33:59;;;;;;;14.45;6.40;;;;;;;12.87;92.16;101427.38;4993175;28;20486;-65
2021/12/30 10:36:29;;;;;;;13.52;6.43;;;;;;;12.82;91.43;101434.75;5005776;28;20032;-65
2021/12/30 10:39:12;;;;;;;16.50;6.22;;;;;;;12.84;90.99;101427.63;4994484;28;20050;-65
2021/12/30 10:41:38;;;;;;;14.73;6.57;;;;;;;12.83;91.21;101431.19;4998277;28;20575;-65
2021/12/30 10:44:05;;;;;;;13.52;6.88;;;;;;;12.82;91.21;101426.94;5007230;28;20128;-65
2021/12/30 10:46:30;;;;;;;15.35;6.50;;;;;;;12.82;90.88;101434.75;4995857;28;20034;-66
2021/12/30 10:49:20;;;;;;;13.05;6.60;;;;;;;12.84;91.22;101427.63;4997232;28;20040;-66
2021/12/30 10:51:48;;;;;;;13.88;5.95;;;;;;;12.85;90.69;101418.88;5004185;28;20026;-66
2021/12/30 10:54:29;;;;;;;16.65;6.18;;;;;;;12.88;90.96;101429.03;5017963;28;20037;-66
2021/12/30 10:57:00;;;;;;;14.32;6.18;;;;;;;12.83;90.60;101432.00;5009737;28;20023;-66
2021/12/30 10:59:34;;;;;;;16.80;6.40;;;;;;;12.85;90.38;101439.72;4997154;28;20061;-65
2021/12/30 11:02:12;;;;;;;14.20;6.20;;;;;;;12.91;90.02;101441.81;4996806;28;20026;-65
2021/12/30 11:04:39;;;;;;;12.85;5.90;;;;;;;12.92;90.03;101446.06;4995318;28;20169;-65
2021/12/30 11:07:07;;;;;;;16.67;6.10;;;;;;;12.94;89.80;101433.72;4997948;28;20108;-65